createdAt,value
2023-10-29T00:02:35.878Z,2.85
2023-10-29T00:05:09.201Z,2.53
2023-10-29T00:07:39.087Z,3.22
2023-10-29T00:10:21.262Z,3.20
2023-10-29T00:13:09.728Z,3.13
2023-10-29T00:15:43.662Z,3.50
2023-10-29T00:18:38.777Z,2.90
2023-10-29T00:21:16.088Z,3.13
2023-10-29T00:23:48.397Z,2.67
2023-10-29T00:26:19.102Z,2.83
2023-10-29T00:28:52.536Z,2.63
2023-10-29T00:31:21.646Z,2.88
2023-10-29T00:33:49.804Z,3.33
2023-10-29T00:36:17.700Z,3.15
2023-10-29T00:38:45.909Z,2.35
2023-10-29T00:41:15.100Z,2.55
2023-10-29T00:43:43.687Z,2.45
2023-10-29T00:46:15.903Z,2.50
2023-10-29T00:48:44.868Z,2.60
2023-10-29T00:51:14.348Z,2.42
2023-10-29T00:53:43.528Z,2.70
2023-10-29T00:56:12.940Z,2.97
2023-10-29T00:58:42.224Z,2.77
2023-10-29T01:01:11.606Z,2.40
2023-10-29T01:03:42.712Z,2.13
2023-10-29T01:06:13.792Z,2.55
2023-10-29T01:08:43.443Z,2.20
2023-10-29T01:11:11.451Z,2.20
2023-10-29T01:13:40.180Z,2.42
2023-10-29T01:16:09.335Z,2.42
2023-10-29T01:18:37.742Z,2.78
2023-10-29T01:21:10.000Z,2.15
2023-10-29T01:23:38.982Z,2.25
2023-10-29T01:26:08.576Z,2.22
2023-10-29T01:28:36.750Z,2.70
2023-10-29T01:31:06.461Z,2.50
2023-10-29T01:33:34.870Z,2.65
2023-10-29T01:36:02.849Z,2.67
2023-10-29T01:38:33.561Z,2.35
2023-10-29T01:41:01.916Z,2.22
2023-10-29T01:43:30.408Z,1.90
2023-10-29T01:45:58.586Z,2.38
2023-10-29T01:48:27.079Z,2.50
2023-10-29T01:50:55.109Z,2.38
2023-10-29T01:53:23.760Z,2.67
2023-10-29T01:55:53.338Z,2.10
2023-10-29T01:58:21.940Z,2.60
2023-10-29T02:00:50.129Z,2.45
2023-10-29T02:03:18.668Z,2.25
2023-10-29T02:05:46.892Z,2.38
2023-10-29T02:08:15.319Z,2.65
2023-10-29T02:10:44.280Z,1.90
2023-10-29T02:13:15.927Z,2.00
2023-10-29T02:15:44.775Z,2.25
2023-10-29T02:18:13.566Z,2.10
2023-10-29T02:20:41.566Z,1.90
2023-10-29T02:23:10.941Z,1.70
2023-10-29T02:25:40.262Z,2.10
2023-10-29T02:28:08.475Z,1.85
2023-10-29T02:30:36.585Z,1.60
2023-10-29T02:33:04.680Z,1.52
2023-10-29T02:35:32.777Z,2.10
2023-10-29T02:38:02.438Z,1.77
2023-10-29T02:40:32.343Z,1.40
2023-10-29T02:43:00.827Z,2.00
2023-10-29T02:45:28.836Z,1.60
2023-10-29T02:47:57.343Z,1.70
2023-10-29T02:50:25.397Z,1.60
2023-10-29T02:52:53.922Z,1.60
2023-10-29T02:55:21.981Z,1.65
2023-10-29T02:57:51.252Z,1.88
2023-10-29T03:00:20.493Z,1.93
2023-10-29T03:02:49.188Z,1.60
2023-10-29T03:05:19.874Z,1.50
2023-10-29T03:07:50.414Z,1.58
2023-10-29T03:10:18.650Z,1.80
2023-10-29T03:12:47.043Z,1.83
2023-10-29T03:15:17.260Z,1.67
2023-10-29T03:17:45.773Z,1.73
2023-10-29T03:20:17.465Z,1.80
2023-10-29T03:22:45.654Z,1.70
2023-10-29T03:25:14.292Z,1.73
2023-10-29T03:27:42.713Z,1.85
2023-10-29T03:30:11.690Z,1.30
2023-10-29T03:35:10.466Z,1.38
2023-10-29T03:37:38.941Z,1.60
2023-10-29T03:40:08.602Z,1.60
2023-10-29T03:42:37.068Z,1.25
2023-10-29T03:45:06.024Z,1.50
2023-10-29T03:47:34.318Z,1.70
2023-10-29T03:50:05.611Z,1.38
2023-10-29T03:52:34.473Z,1.90
2023-10-29T03:55:02.849Z,1.58
2023-10-29T03:57:30.999Z,2.13
2023-10-29T03:59:59.471Z,2.10
2023-10-29T04:02:28.082Z,1.33
2023-10-29T04:05:06.162Z,1.83
2023-10-29T04:07:38.921Z,1.65
2023-10-29T04:10:10.568Z,1.40
2023-10-29T04:12:38.730Z,2.33
2023-10-29T04:15:08.963Z,1.50
2023-10-29T04:17:37.708Z,1.60
2023-10-29T04:20:07.249Z,1.98
2023-10-29T04:22:35.423Z,1.73
2023-10-29T04:25:05.690Z,1.10
2023-10-29T04:30:02.052Z,1.30
2023-10-29T04:32:30.601Z,1.60
2023-10-29T04:34:58.597Z,1.20
2023-10-29T04:37:27.207Z,1.42
2023-10-29T04:39:55.275Z,1.60
2023-10-29T04:42:24.827Z,1.27
2023-10-29T04:44:53.212Z,1.60
2023-10-29T04:47:21.129Z,1.73
2023-10-29T04:49:50.104Z,1.70
2023-10-29T04:52:20.434Z,1.33
2023-10-29T04:57:20.968Z,1.20
2023-10-29T04:59:50.779Z,1.25
2023-10-29T05:02:19.343Z,1.30
2023-10-29T05:04:47.479Z,1.50
2023-10-29T05:07:15.500Z,1.63
2023-10-29T05:09:43.648Z,1.42
2023-10-29T05:12:12.769Z,1.40
2023-10-29T05:14:40.870Z,1.20
2023-10-29T05:17:11.935Z,1.52
2023-10-29T05:19:40.958Z,1.20
2023-10-29T05:22:09.408Z,1.60
2023-10-29T05:24:37.890Z,1.35
2023-10-29T05:27:06.347Z,1.58
2023-10-29T05:29:35.167Z,1.50
2023-10-29T05:32:03.780Z,1.20
2023-10-29T05:34:34.660Z,1.45
2023-10-29T05:37:02.613Z,1.40
2023-10-29T05:39:30.860Z,1.67
2023-10-29T05:41:59.167Z,1.50
2023-10-29T05:44:27.858Z,1.30
2023-10-29T05:46:55.790Z,1.38
2023-10-29T05:49:24.382Z,1.35
2023-10-29T05:51:53.904Z,1.60
2023-10-29T05:54:21.859Z,1.20
2023-10-29T05:56:49.891Z,1.13
2023-10-29T05:59:19.798Z,1.48
2023-10-29T06:01:48.028Z,1.05
2023-10-29T06:04:16.261Z,1.17
2023-10-29T06:06:44.260Z,1.65
2023-10-29T06:09:23.639Z,1.25
2023-10-29T06:11:54.399Z,1.20
2023-10-29T06:14:24.138Z,1.38
2023-10-29T06:17:01.338Z,1.27
2023-10-29T06:19:34.634Z,1.55
2023-10-29T06:22:02.731Z,1.25
2023-10-29T06:24:33.075Z,1.35
2023-10-29T06:29:29.600Z,1.15
2023-10-29T06:31:58.384Z,1.42
2023-10-29T06:34:26.835Z,1.60
2023-10-29T06:36:55.175Z,1.50
2023-10-29T06:39:24.853Z,1.50
2023-10-29T06:41:54.501Z,2.05
2023-10-29T06:44:23.159Z,1.33
2023-10-29T06:46:52.128Z,1.17
2023-10-29T06:49:20.625Z,1.23
2023-10-29T06:51:49.798Z,1.40
2023-10-29T06:54:17.891Z,1.63
2023-10-29T06:56:46.338Z,1.33
2023-10-29T06:59:15.727Z,1.70
2023-10-29T07:01:44.382Z,1.73
2023-10-29T07:04:12.873Z,1.55
2023-10-29T07:06:43.550Z,1.98
2023-10-29T07:09:12.075Z,1.40
2023-10-29T07:11:41.567Z,1.80
2023-10-29T07:14:09.641Z,2.33
2023-10-29T07:16:39.939Z,1.42
2023-10-29T07:21:37.247Z,1.60
2023-10-29T07:24:06.343Z,1.98
2023-10-29T07:26:34.849Z,1.90
2023-10-29T07:29:03.545Z,1.23
2023-10-29T07:31:31.639Z,1.20
2023-10-29T07:34:01.681Z,1.75
2023-10-29T07:36:30.286Z,1.17
2023-10-29T07:38:59.152Z,1.88
2023-10-29T07:41:27.788Z,1.60
2023-10-29T07:43:56.349Z,1.35
2023-10-29T07:46:24.852Z,2.60
2023-10-29T07:48:53.387Z,3.00
2023-10-29T07:51:22.948Z,2.65
2023-10-29T07:53:51.852Z,1.48
2023-10-29T07:56:20.729Z,1.13
2023-10-29T07:58:50.376Z,2.28
2023-10-29T08:01:20.169Z,1.48
2023-10-29T08:03:49.816Z,2.10
2023-10-29T08:06:18.097Z,1.55
2023-10-29T08:08:48.085Z,1.60
2023-10-29T08:11:20.657Z,1.58
2023-10-29T08:13:49.235Z,1.73
2023-10-29T08:16:18.529Z,2.47
2023-10-29T08:18:46.761Z,1.50
2023-10-29T08:21:16.307Z,1.15
2023-10-29T08:23:44.771Z,1.63
2023-10-29T08:26:15.315Z,0.93
2023-10-29T08:28:43.847Z,1.20
2023-10-29T08:31:13.774Z,1.30
2023-10-29T08:33:41.832Z,1.00
2023-10-29T08:36:10.214Z,1.40
2023-10-29T08:38:38.396Z,1.05
2023-10-29T08:41:16.711Z,1.67
2023-10-29T08:43:45.737Z,1.30
2023-10-29T08:46:14.753Z,1.60
2023-10-29T08:48:43.158Z,1.40
2023-10-29T08:51:13.287Z,1.20
2023-10-29T08:56:10.028Z,1.25
2023-10-29T08:58:40.092Z,1.15
2023-10-29T09:03:37.739Z,1.02
2023-10-29T09:06:07.318Z,1.10
2023-10-29T09:08:35.838Z,1.20
2023-10-29T09:11:04.473Z,1.27
2023-10-29T09:13:33.224Z,1.00
2023-10-29T09:16:03.240Z,1.48
2023-10-29T09:18:31.775Z,1.05
2023-10-29T09:21:00.186Z,1.10
2023-10-29T09:23:30.410Z,1.20
2023-10-29T09:28:28.086Z,0.80
2023-10-29T09:30:56.333Z,1.15
2023-10-29T09:33:25.741Z,1.00
2023-10-29T09:35:54.357Z,1.30
2023-10-29T09:38:22.803Z,0.85
2023-10-29T09:40:55.097Z,1.25
2023-10-29T09:43:28.982Z,0.75
2023-10-29T09:45:57.452Z,0.90
2023-10-29T09:48:28.992Z,1.00
2023-10-29T09:50:57.463Z,0.95
2023-10-29T09:53:26.388Z,0.90
2023-10-29T09:55:56.901Z,0.75
2023-10-29T10:00:53.604Z,0.80
2023-10-29T10:03:22.088Z,0.90
2023-10-29T10:05:51.861Z,1.25
2023-10-29T10:08:25.638Z,1.20
2023-10-29T10:10:54.201Z,0.90
2023-10-29T10:13:37.619Z,1.00
2023-10-29T10:16:10.560Z,1.00
2023-10-29T10:18:52.727Z,0.95
2023-10-29T10:21:24.394Z,0.98
2023-10-29T10:23:53.974Z,0.88
2023-10-29T10:26:30.342Z,0.98
2023-10-29T10:28:59.949Z,0.85
2023-10-29T10:31:28.905Z,0.90
2023-10-29T10:34:13.094Z,1.10
2023-10-29T10:36:43.130Z,0.90
2023-10-29T10:39:12.667Z,0.90
2023-10-29T10:41:43.802Z,1.20
2023-10-29T10:44:14.455Z,1.38
2023-10-29T10:46:50.642Z,1.38
2023-10-29T10:49:19.795Z,1.20
2023-10-29T10:51:51.221Z,1.02
2023-10-29T10:54:20.361Z,0.98
2023-10-29T10:56:50.269Z,1.23
2023-10-29T10:59:19.054Z,0.90
2023-10-29T11:01:47.126Z,1.13
2023-10-29T11:04:16.259Z,0.85
2023-10-29T11:06:45.347Z,0.82
2023-10-29T11:09:18.504Z,1.30
2023-10-29T11:11:49.036Z,0.77
2023-10-29T11:14:18.449Z,0.90
2023-10-29T11:16:53.475Z,1.00
2023-10-29T11:19:47.226Z,1.02
2023-10-29T11:22:17.339Z,1.02
2023-10-29T11:25:06.860Z,0.77
2023-10-29T11:27:36.720Z,0.88
2023-10-29T11:30:15.812Z,0.90
2023-10-29T11:32:45.364Z,1.00
2023-10-29T11:35:21.616Z,0.82
2023-10-29T11:37:51.028Z,0.90
2023-10-29T11:40:35.582Z,1.00
2023-10-29T11:43:18.069Z,0.70
2023-10-29T11:46:00.016Z,1.00
2023-10-29T11:48:31.441Z,1.10
2023-10-29T11:51:19.608Z,1.08
2023-10-29T11:53:48.502Z,0.90
2023-10-29T11:56:20.069Z,0.80
2023-10-29T11:58:48.018Z,0.70
2023-10-29T12:01:22.389Z,1.00
2023-10-29T12:03:54.483Z,0.90
2023-10-29T12:06:22.916Z,0.90
2023-10-29T12:08:51.235Z,0.80
2023-10-29T12:11:28.547Z,0.98
2023-10-29T12:13:56.560Z,0.80
2023-10-29T12:16:24.536Z,0.80
2023-10-29T12:18:53.006Z,0.80
2023-10-29T12:21:21.568Z,0.90
2023-10-29T12:23:50.772Z,0.80
2023-10-29T12:26:20.709Z,0.93
2023-10-29T12:28:50.617Z,0.75
2023-10-29T12:31:26.123Z,0.80
2023-10-29T12:33:58.179Z,0.90
2023-10-29T12:36:27.245Z,1.20
2023-10-29T12:38:55.966Z,0.93
2023-10-29T12:41:28.863Z,0.70
2023-10-29T12:43:57.218Z,1.02
2023-10-29T12:46:27.221Z,1.23
2023-10-29T12:48:59.439Z,1.10
2023-10-29T12:51:28.288Z,1.23
2023-10-29T12:54:12.379Z,1.30
2023-10-29T12:56:53.197Z,0.75
2023-10-29T12:59:22.511Z,0.90
2023-10-29T13:01:51.761Z,0.68
2023-10-29T13:04:21.044Z,0.87
2023-10-29T13:06:49.109Z,0.80
2023-10-29T13:09:19.631Z,1.10
2023-10-29T13:11:48.024Z,0.90
2023-10-29T13:14:17.377Z,0.80
2023-10-29T13:16:46.968Z,0.77
2023-10-29T13:19:15.708Z,1.15
2023-10-29T13:21:43.932Z,1.00
2023-10-29T13:24:13.311Z,1.20
2023-10-29T13:26:42.256Z,2.50
2023-10-29T13:29:13.755Z,1.38
2023-10-29T13:31:44.383Z,1.27
2023-10-29T13:34:14.435Z,1.50
2023-10-29T13:36:43.060Z,1.75
2023-10-29T13:39:12.180Z,1.10
2023-10-29T13:41:41.442Z,1.00
2023-10-29T13:44:09.796Z,0.98
2023-10-29T13:46:38.022Z,1.00
2023-10-29T13:49:07.916Z,1.30
2023-10-29T13:51:36.774Z,1.10
2023-10-29T13:54:05.593Z,1.35
2023-10-29T13:56:34.362Z,1.27
2023-10-29T13:59:02.551Z,1.27
2023-10-29T14:01:30.851Z,1.20
2023-10-29T14:03:59.739Z,1.15
2023-10-29T14:06:31.425Z,1.08
2023-10-29T14:08:59.807Z,1.65
2023-10-29T14:11:29.577Z,1.25
2023-10-29T14:13:59.413Z,2.58
2023-10-29T14:16:38.962Z,3.53
2023-10-29T14:19:07.932Z,1.55
2023-10-29T14:21:37.842Z,1.70
2023-10-29T14:24:09.083Z,1.20
2023-10-29T14:26:38.005Z,3.60
2023-10-29T14:29:06.397Z,1.63
2023-10-29T14:31:36.044Z,3.35
2023-10-29T14:34:05.137Z,1.60
2023-10-29T14:36:33.665Z,2.97
2023-10-29T14:39:03.734Z,1.15
2023-10-29T14:41:32.479Z,1.20
2023-10-29T14:44:01.135Z,4.28
2023-10-29T14:46:29.394Z,2.30
2023-10-29T14:48:57.403Z,1.38
2023-10-29T14:51:25.500Z,0.85
2023-10-29T14:53:53.877Z,0.95
2023-10-29T14:56:24.995Z,1.42
2023-10-29T14:58:54.139Z,0.90
2023-10-29T15:01:25.131Z,1.05
2023-10-29T15:03:54.329Z,5.70
2023-10-29T15:06:22.771Z,1.48
2023-10-29T15:08:51.408Z,1.20
2023-10-29T15:11:33.743Z,2.88
2023-10-29T15:14:07.146Z,1.48
2023-10-29T15:16:35.722Z,1.40
2023-10-29T15:19:06.402Z,1.30
2023-10-29T15:21:35.770Z,1.98
2023-10-29T15:24:05.425Z,3.28
2023-10-29T15:26:33.819Z,1.63
2023-10-29T15:29:02.529Z,1.80
2023-10-29T15:31:33.300Z,1.38
2023-10-29T15:34:02.199Z,2.20
2023-10-29T15:36:41.189Z,1.52
2023-10-29T15:39:10.317Z,1.20
2023-10-29T15:41:43.774Z,1.60
2023-10-29T15:44:26.170Z,2.28
2023-10-29T15:47:10.818Z,1.48
2023-10-29T15:49:44.825Z,1.98
2023-10-29T15:52:29.477Z,2.28
2023-10-29T15:55:00.002Z,2.00
2023-10-29T15:57:28.079Z,1.60
2023-10-29T16:03:17.909Z,1.27
2023-10-29T16:05:51.921Z,0.93
2023-10-29T16:08:26.478Z,1.60
2023-10-29T16:11:23.429Z,2.08
2023-10-29T16:14:15.299Z,4.80
2023-10-29T16:17:19.261Z,3.95
2023-10-29T16:20:06.938Z,1.80
2023-10-29T16:22:58.449Z,1.70
2023-10-29T16:25:36.096Z,2.42
2023-10-29T16:28:20.910Z,1.70
2023-10-29T16:31:00.541Z,1.83
2023-10-29T16:33:47.260Z,4.10
2023-10-29T16:36:29.014Z,1.80
2023-10-29T16:39:10.180Z,1.92
2023-10-29T16:41:42.664Z,2.10
2023-10-29T16:44:31.968Z,3.63
2023-10-29T16:47:02.312Z,2.83
2023-10-29T16:49:53.394Z,3.88
2023-10-29T16:53:07.805Z,2.70
2023-10-29T16:55:46.896Z,2.80
2023-10-29T16:59:35.600Z,2.38
2023-10-29T17:01:32.421Z,1.77
2023-10-29T17:04:00.838Z,3.58
2023-10-29T17:06:36.840Z,1.30
2023-10-29T17:09:12.796Z,1.17
2023-10-29T17:12:04.069Z,4.20
2023-10-29T17:14:48.130Z,1.95
2023-10-29T17:17:34.993Z,2.03
2023-10-29T17:20:31.607Z,2.38
2023-10-29T17:23:30.038Z,2.65
2023-10-29T17:26:26.021Z,2.08
2023-10-29T17:28:56.518Z,2.65
2023-10-29T17:31:38.218Z,1.67
2023-10-29T17:34:16.696Z,5.90
2023-10-29T17:36:49.750Z,8.45
2023-10-29T17:39:33.047Z,13.38
2023-10-29T17:42:02.996Z,9.75
2023-10-29T17:44:31.679Z,6.80
2023-10-29T17:46:59.994Z,15.77
2023-10-29T17:49:28.225Z,3.20
2023-10-29T17:51:56.321Z,6.00
2023-10-29T17:54:26.120Z,4.35
2023-10-29T17:56:55.108Z,3.80
2023-10-29T17:59:26.270Z,1.92
2023-10-29T18:01:54.419Z,2.90
2023-10-29T18:04:23.090Z,2.53
2023-10-29T18:06:52.558Z,1.70
2023-10-29T18:09:31.634Z,2.22
2023-10-29T18:12:13.193Z,2.33
2023-10-29T18:14:56.225Z,1.88
2023-10-29T18:17:40.851Z,1.70
2023-10-29T18:20:32.583Z,1.35
2023-10-29T18:23:14.065Z,1.50
2023-10-29T18:26:17.813Z,1.60
2023-10-29T18:29:01.222Z,1.25
2023-10-29T18:32:10.238Z,1.38
2023-10-29T18:34:58.421Z,1.40
2023-10-29T18:41:07.809Z,1.00
2023-10-29T18:46:42.993Z,1.35
2023-10-29T18:49:18.568Z,0.70
2023-10-29T18:51:52.651Z,1.30
2023-10-29T18:54:44.926Z,1.70
2023-10-29T18:57:19.152Z,1.20
2023-10-29T19:00:05.111Z,0.90
2023-10-29T19:03:06.376Z,1.10
2023-10-29T19:05:39.867Z,1.00
2023-10-29T19:08:18.870Z,0.90
2023-10-29T19:10:57.751Z,3.35
2023-10-29T19:13:34.338Z,2.10
2023-10-29T19:16:20.486Z,7.00
2023-10-29T19:19:03.966Z,3.25
2023-10-29T19:22:07.143Z,2.50
2023-10-29T19:24:47.489Z,2.42
2023-10-29T19:27:27.888Z,1.08
2023-10-29T19:30:27.970Z,1.10
2023-10-29T19:33:03.565Z,1.33
2023-10-29T19:35:37.472Z,1.02
2023-10-29T19:38:25.757Z,2.45
2023-10-29T19:41:11.390Z,1.50
2023-10-29T19:43:52.830Z,1.85
2023-10-29T19:46:28.939Z,2.47
2023-10-29T19:49:05.029Z,1.90
2023-10-29T19:51:33.316Z,0.90
2023-10-29T19:54:03.187Z,1.00
2023-10-29T19:56:31.468Z,0.90
2023-10-29T19:59:01.175Z,1.42
2023-10-29T20:01:29.246Z,0.90
2023-10-29T20:03:59.089Z,1.10
2023-10-29T20:06:30.475Z,1.10
2023-10-29T20:08:58.930Z,1.42
2023-10-29T20:11:31.866Z,1.00
2023-10-29T20:14:04.328Z,1.50
2023-10-29T20:16:54.194Z,1.70
2023-10-29T20:19:33.375Z,0.93
2023-10-29T20:22:06.158Z,0.80
2023-10-29T20:24:42.136Z,1.08
2023-10-29T20:27:20.069Z,0.80
2023-10-29T20:29:50.551Z,0.95
2023-10-29T20:32:23.744Z,0.80
2023-10-29T20:34:57.372Z,0.80
2023-10-29T20:37:31.813Z,0.85
2023-10-29T20:40:11.674Z,0.70
2023-10-29T20:43:10.296Z,1.45
2023-10-29T20:45:44.520Z,1.50
2023-10-29T20:48:32.444Z,1.08
2023-10-29T20:51:06.949Z,0.73
2023-10-29T20:53:37.845Z,1.05
2023-10-29T20:56:09.093Z,1.00
2023-10-29T20:58:47.205Z,0.80
2023-10-29T21:01:18.049Z,0.95
2023-10-29T21:03:47.399Z,1.30
2023-10-29T21:06:30.983Z,1.13
2023-10-29T21:11:59.672Z,0.95
2023-10-29T21:14:38.826Z,0.80
2023-10-29T21:17:33.567Z,0.80
2023-10-29T21:20:30.024Z,0.90
2023-10-29T21:23:05.359Z,0.77
2023-10-29T21:25:51.464Z,0.60
2023-10-29T21:28:23.341Z,0.93
2023-10-29T21:31:02.498Z,0.90
2023-10-29T21:33:42.059Z,0.77
2023-10-29T21:36:42.178Z,0.75
2023-10-29T21:39:10.628Z,1.00
2023-10-29T21:41:44.533Z,0.80
2023-10-29T21:44:16.636Z,0.70
2023-10-29T21:46:57.919Z,0.50
2023-10-29T21:49:45.474Z,0.98
2023-10-29T21:52:34.440Z,0.93
2023-10-29T21:55:18.767Z,1.10
2023-10-29T21:58:09.405Z,1.05
2023-10-29T22:01:16.104Z,0.88
2023-10-29T22:03:56.926Z,0.52
2023-10-29T22:06:42.489Z,0.85
2023-10-29T22:09:34.339Z,1.00
2023-10-29T22:12:11.463Z,1.15
2023-10-29T22:14:42.132Z,0.90
2023-10-29T22:17:25.067Z,0.90
2023-10-29T22:22:55.168Z,0.70
2023-10-29T22:25:58.971Z,1.05
2023-10-29T22:28:37.188Z,0.75
2023-10-29T22:31:50.096Z,0.80
2023-10-29T22:34:24.464Z,1.15
2023-10-29T22:36:59.908Z,0.80
2023-10-29T22:39:44.109Z,1.30
2023-10-29T22:42:15.958Z,1.00
2023-10-29T22:44:45.431Z,1.25
2023-10-29T22:47:17.768Z,1.00
2023-10-29T22:49:52.315Z,0.90
2023-10-29T22:52:32.861Z,1.00
2023-10-29T22:55:01.493Z,0.93
2023-10-29T22:57:32.093Z,0.95
2023-10-29T23:00:04.174Z,1.65
2023-10-29T23:02:35.278Z,1.20
2023-10-29T23:05:05.612Z,0.95
2023-10-29T23:07:37.068Z,1.20
2023-10-29T23:10:09.360Z,1.10
2023-10-29T23:12:44.951Z,1.20
2023-10-29T23:15:25.349Z,1.58
2023-10-29T23:17:59.743Z,1.27
2023-10-29T23:20:28.403Z,0.95
2023-10-29T23:23:25.387Z,1.02
2023-10-29T23:26:06.201Z,1.05
2023-10-29T23:28:52.108Z,1.40
2023-10-29T23:31:20.927Z,1.10
2023-10-29T23:33:55.993Z,1.60
2023-10-29T23:36:24.352Z,1.10
2023-10-29T23:39:03.804Z,0.93
2023-10-29T23:41:34.267Z,1.25
2023-10-29T23:44:06.086Z,1.13
2023-10-29T23:46:34.793Z,0.90
2023-10-29T23:49:06.420Z,1.10
2023-10-29T23:51:38.722Z,1.08
2023-10-29T23:54:09.360Z,1.30
2023-10-29T23:56:53.511Z,0.80
2023-10-29T23:59:43.840Z,0.98
